createdAt,value
2017-08-29T00:00:12.784Z,14.00
2017-08-29T00:02:39.224Z,14.00
2017-08-29T00:05:05.688Z,13.90
2017-08-29T00:07:32.144Z,13.90
2017-08-29T00:09:58.587Z,13.70
2017-08-29T00:12:25.051Z,13.70
2017-08-29T00:14:51.482Z,13.70
2017-08-29T00:17:17.914Z,13.70
2017-08-29T00:19:45.164Z,13.70
2017-08-29T00:22:11.616Z,13.70
2017-08-29T00:24:38.791Z,13.70
2017-08-29T00:27:05.248Z,13.70
2017-08-29T00:29:31.732Z,13.80
2017-08-29T00:31:58.941Z,13.60
2017-08-29T00:34:25.416Z,13.60
2017-08-29T00:36:51.951Z,13.60
2017-08-29T00:39:18.412Z,13.50
2017-08-29T00:41:44.886Z,13.50
2017-08-29T00:44:11.365Z,13.60
2017-08-29T00:46:37.895Z,13.50
2017-08-29T00:49:05.164Z,13.30
2017-08-29T00:51:31.623Z,13.30
2017-08-29T00:53:58.110Z,13.20
2017-08-29T00:56:24.635Z,13.20
2017-08-29T00:58:51.124Z,13.20
2017-08-29T01:01:17.552Z,13.20
2017-08-29T01:03:44.042Z,13.20
2017-08-29T01:06:10.480Z,13.20
2017-08-29T01:08:36.964Z,13.20
2017-08-29T01:11:03.680Z,13.10
2017-08-29T01:13:30.167Z,13.00
2017-08-29T01:15:56.679Z,12.90
2017-08-29T01:18:23.143Z,12.90
2017-08-29T01:20:49.683Z,12.90
2017-08-29T01:23:16.163Z,12.90
2017-08-29T01:25:42.689Z,13.00
2017-08-29T01:28:09.224Z,13.00
2017-08-29T01:30:35.711Z,12.90
2017-08-29T01:33:02.224Z,12.90
2017-08-29T01:35:28.767Z,12.90
2017-08-29T01:37:55.237Z,12.80
2017-08-29T01:40:21.717Z,12.70
2017-08-29T01:42:48.227Z,12.70
2017-08-29T01:45:14.801Z,12.60
2017-08-29T01:47:41.318Z,12.60
2017-08-29T01:50:07.844Z,12.50
2017-08-29T01:52:34.306Z,12.50
2017-08-29T01:55:00.806Z,12.60
2017-08-29T01:57:27.327Z,12.60
2017-08-29T01:59:53.822Z,12.50
2017-08-29T02:02:20.310Z,12.40
2017-08-29T02:04:46.809Z,12.30
2017-08-29T02:07:13.311Z,12.30
2017-08-29T02:09:39.774Z,12.40
2017-08-29T02:12:06.286Z,12.40
2017-08-29T02:14:32.721Z,12.30
2017-08-29T02:16:59.155Z,12.30
2017-08-29T02:19:25.613Z,12.30
2017-08-29T02:21:52.064Z,12.20
2017-08-29T02:24:18.494Z,12.20
2017-08-29T02:26:44.968Z,12.30
2017-08-29T02:29:11.452Z,12.20
2017-08-29T02:31:37.894Z,12.20
2017-08-29T02:34:05.072Z,12.20
2017-08-29T02:36:31.563Z,12.10
2017-08-29T02:38:58.031Z,12.20
2017-08-29T02:41:24.472Z,12.10
2017-08-29T02:43:50.948Z,12.20
2017-08-29T02:46:17.396Z,12.10
2017-08-29T02:48:43.844Z,12.10
2017-08-29T02:51:10.362Z,12.00
2017-08-29T02:53:36.832Z,11.90
2017-08-29T02:56:03.301Z,11.90
2017-08-29T02:58:29.728Z,11.80
2017-08-29T03:00:56.188Z,11.70
2017-08-29T03:03:22.661Z,11.50
2017-08-29T03:05:49.101Z,11.40
2017-08-29T03:08:15.531Z,11.30
2017-08-29T03:10:41.985Z,11.20
2017-08-29T03:13:08.478Z,11.30
2017-08-29T03:15:34.983Z,11.30
2017-08-29T03:18:01.427Z,11.40
2017-08-29T03:20:27.859Z,11.40
2017-08-29T03:22:54.323Z,11.40
2017-08-29T03:25:20.754Z,11.30
2017-08-29T03:27:47.238Z,11.30
2017-08-29T03:30:13.705Z,11.30
2017-08-29T03:32:40.171Z,11.30
2017-08-29T03:35:06.642Z,11.10
2017-08-29T03:37:33.097Z,11.10
2017-08-29T03:39:59.586Z,11.10
2017-08-29T03:42:26.021Z,11.10
2017-08-29T03:44:52.444Z,11.10
2017-08-29T03:47:18.919Z,11.10
2017-08-29T03:49:45.380Z,11.20
2017-08-29T03:52:11.939Z,11.10
2017-08-29T03:54:38.434Z,11.00
2017-08-29T03:57:04.915Z,10.90
2017-08-29T03:59:31.370Z,10.70
2017-08-29T04:01:57.889Z,10.70
2017-08-29T04:04:24.366Z,10.60
2017-08-29T04:06:50.823Z,10.60
2017-08-29T04:09:17.307Z,10.70
2017-08-29T04:11:43.737Z,10.60
2017-08-29T04:14:10.194Z,10.50
2017-08-29T04:16:36.661Z,10.50
2017-08-29T04:19:03.094Z,10.50
2017-08-29T04:21:30.164Z,10.50
2017-08-29T04:23:56.624Z,10.60
2017-08-29T04:26:23.086Z,10.50
2017-08-29T04:28:49.538Z,10.40
2017-08-29T04:31:15.993Z,10.20
2017-08-29T04:33:42.433Z,10.20
2017-08-29T04:36:08.894Z,10.30
2017-08-29T04:38:35.344Z,10.40
2017-08-29T04:41:01.843Z,10.40
2017-08-29T04:43:28.257Z,10.50
2017-08-29T04:45:54.712Z,10.60
2017-08-29T04:48:21.180Z,10.60
2017-08-29T04:50:47.637Z,10.70
2017-08-29T04:53:14.110Z,10.70
2017-08-29T04:55:40.581Z,10.70
2017-08-29T04:58:07.104Z,10.60
2017-08-29T05:00:34.501Z,10.50
2017-08-29T05:03:01.006Z,10.50
2017-08-29T05:05:27.628Z,10.50
2017-08-29T05:07:54.083Z,10.50
2017-08-29T05:10:20.626Z,10.60
2017-08-29T05:12:47.102Z,10.60
2017-08-29T05:15:13.582Z,10.70
2017-08-29T05:17:40.060Z,10.70
2017-08-29T05:20:06.818Z,10.80
2017-08-29T05:22:33.270Z,10.80
2017-08-29T05:24:59.823Z,11.00
2017-08-29T05:27:26.296Z,11.10
2017-08-29T05:29:52.783Z,11.10
2017-08-29T05:32:19.685Z,11.10
2017-08-29T05:34:46.168Z,11.30
2017-08-29T05:37:12.654Z,11.40
2017-08-29T05:39:39.195Z,11.40
2017-08-29T05:42:05.696Z,11.40
2017-08-29T05:44:32.157Z,11.70
2017-08-29T05:46:58.647Z,11.90
2017-08-29T05:49:25.175Z,12.10
2017-08-29T05:51:51.660Z,12.30
2017-08-29T05:54:18.125Z,12.40
2017-08-29T05:56:44.607Z,12.60
2017-08-29T05:59:11.838Z,12.60
2017-08-29T06:01:38.334Z,12.60
2017-08-29T06:04:04.844Z,12.80
2017-08-29T06:06:31.325Z,12.90
2017-08-29T06:08:57.823Z,13.00
2017-08-29T06:11:24.397Z,13.10
2017-08-29T06:13:50.868Z,13.20
2017-08-29T06:16:17.379Z,13.40
2017-08-29T06:18:43.885Z,13.60
2017-08-29T06:21:10.351Z,13.70
2017-08-29T06:23:36.814Z,13.90
2017-08-29T06:26:03.273Z,14.10
2017-08-29T06:28:29.716Z,14.50
2017-08-29T06:30:56.236Z,14.60
2017-08-29T06:33:22.711Z,14.90
2017-08-29T06:35:49.157Z,15.10
2017-08-29T06:38:15.613Z,15.40
2017-08-29T06:40:48.384Z,15.80
2017-08-29T06:43:14.896Z,16.40
2017-08-29T06:45:41.367Z,16.60
2017-08-29T06:48:07.806Z,16.90
2017-08-29T06:50:34.250Z,17.30
2017-08-29T06:53:00.716Z,17.70
2017-08-29T06:55:27.185Z,17.80
2017-08-29T06:57:53.618Z,17.80
2017-08-29T07:00:20.084Z,17.70
2017-08-29T07:02:46.531Z,18.00
2017-08-29T07:05:12.993Z,18.20
2017-08-29T07:07:39.430Z,18.30
2017-08-29T07:10:05.885Z,18.70
2017-08-29T07:12:32.392Z,18.80
2017-08-29T07:14:58.856Z,18.80
2017-08-29T07:17:25.385Z,18.80
2017-08-29T07:19:51.852Z,19.20
2017-08-29T07:22:18.272Z,19.40
2017-08-29T07:24:44.819Z,19.60
2017-08-29T07:27:11.301Z,19.80
2017-08-29T07:29:37.767Z,19.70
2017-08-29T07:32:04.300Z,19.80
2017-08-29T07:34:30.787Z,19.90
2017-08-29T07:36:57.301Z,19.90
2017-08-29T07:39:23.773Z,20.30
2017-08-29T07:41:50.245Z,20.30
2017-08-29T07:44:16.722Z,20.30
2017-08-29T07:46:43.194Z,20.40
2017-08-29T07:49:09.681Z,20.60
2017-08-29T07:51:36.123Z,20.80
2017-08-29T07:54:02.583Z,21.00
2017-08-29T07:56:29.055Z,21.20
2017-08-29T07:58:55.503Z,21.20
2017-08-29T08:01:21.963Z,21.30
2017-08-29T08:03:48.417Z,21.20
2017-08-29T08:06:14.852Z,21.30
2017-08-29T08:08:41.298Z,21.50
2017-08-29T08:11:07.758Z,21.50
2017-08-29T08:13:34.250Z,21.70
2017-08-29T08:16:00.733Z,21.80
2017-08-29T08:18:27.184Z,22.10
2017-08-29T08:20:53.656Z,22.00
2017-08-29T08:23:20.200Z,22.00
2017-08-29T08:25:46.765Z,22.10
2017-08-29T08:28:13.265Z,22.20
2017-08-29T08:30:39.739Z,22.20
2017-08-29T08:33:06.178Z,22.20
2017-08-29T08:35:32.652Z,22.30
2017-08-29T08:37:59.108Z,22.20
2017-08-29T08:40:25.544Z,22.20
2017-08-29T08:42:52.012Z,22.20
2017-08-29T08:45:18.476Z,22.30
2017-08-29T08:47:44.912Z,22.20
2017-08-29T08:50:11.362Z,22.30
2017-08-29T08:52:37.850Z,22.50
2017-08-29T08:55:04.309Z,22.70
2017-08-29T08:57:30.760Z,23.00
2017-08-29T08:59:57.220Z,23.30
2017-08-29T09:02:23.684Z,23.70
2017-08-29T09:04:50.188Z,24.00
2017-08-29T09:07:16.705Z,23.90
2017-08-29T09:09:43.175Z,24.00
2017-08-29T09:12:09.661Z,24.10
2017-08-29T09:14:36.099Z,24.00
2017-08-29T09:17:02.612Z,23.90
2017-08-29T09:19:29.064Z,24.00
2017-08-29T09:21:55.590Z,24.00
2017-08-29T09:24:22.066Z,24.30
2017-08-29T09:26:48.516Z,24.50
2017-08-29T09:29:14.962Z,24.50
2017-08-29T09:31:41.471Z,24.30
2017-08-29T09:34:07.936Z,24.20
2017-08-29T09:36:34.421Z,24.20
2017-08-29T09:39:00.888Z,24.20
2017-08-29T09:41:27.355Z,24.40
2017-08-29T09:43:54.177Z,24.50
2017-08-29T09:46:21.610Z,24.70
2017-08-29T09:48:48.048Z,24.70
2017-08-29T09:51:15.249Z,24.60
2017-08-29T09:53:41.754Z,24.60
2017-08-29T09:56:08.237Z,24.60
2017-08-29T09:58:34.719Z,24.50
2017-08-29T10:01:01.163Z,24.60
2017-08-29T10:03:27.620Z,24.70
2017-08-29T10:05:54.084Z,24.70
2017-08-29T10:08:20.564Z,24.70
2017-08-29T10:10:47.042Z,25.00
2017-08-29T10:13:13.499Z,24.90
2017-08-29T10:15:40.752Z,24.80
2017-08-29T10:18:07.243Z,24.80
2017-08-29T10:20:33.762Z,24.90
2017-08-29T10:23:00.220Z,24.90
2017-08-29T10:25:26.672Z,24.90
2017-08-29T10:27:54.038Z,25.10
2017-08-29T10:30:20.595Z,25.10
2017-08-29T10:32:47.085Z,25.30
2017-08-29T10:35:13.548Z,25.20
2017-08-29T10:37:40.035Z,25.20
2017-08-29T10:40:06.504Z,25.30
2017-08-29T10:42:32.951Z,25.50
2017-08-29T10:44:59.412Z,25.70
2017-08-29T10:47:25.894Z,25.70
2017-08-29T10:49:52.368Z,25.70
2017-08-29T10:52:18.846Z,25.70
2017-08-29T10:54:45.347Z,25.80
2017-08-29T10:57:11.800Z,25.80
2017-08-29T10:59:38.300Z,25.70
2017-08-29T11:02:04.758Z,25.70
2017-08-29T11:04:31.241Z,25.70
2017-08-29T11:06:57.698Z,25.80
2017-08-29T11:09:24.181Z,25.80
2017-08-29T11:11:50.628Z,26.10
2017-08-29T11:14:17.091Z,26.10
2017-08-29T11:16:43.551Z,26.20
2017-08-29T11:19:10.070Z,26.30
2017-08-29T11:21:36.559Z,26.40
2017-08-29T11:24:03.099Z,26.20
2017-08-29T11:26:29.607Z,26.00
2017-08-29T11:28:56.117Z,26.10
2017-08-29T11:31:22.588Z,26.30
2017-08-29T11:33:49.091Z,26.40
2017-08-29T11:36:15.584Z,26.30
2017-08-29T11:38:57.018Z,26.00
2017-08-29T11:41:23.533Z,25.80
2017-08-29T11:43:50.080Z,26.00
2017-08-29T11:46:16.567Z,26.10
2017-08-29T11:48:43.096Z,26.40
2017-08-29T11:51:09.579Z,26.60
2017-08-29T11:53:36.087Z,26.90
2017-08-29T11:56:02.620Z,27.00
2017-08-29T11:58:29.134Z,27.10
2017-08-29T12:00:55.628Z,26.70
2017-08-29T12:03:22.147Z,26.80
2017-08-29T12:05:48.632Z,26.80
2017-08-29T12:08:15.133Z,26.90
2017-08-29T12:10:41.654Z,27.10
2017-08-29T12:13:08.118Z,27.10
2017-08-29T12:15:34.626Z,27.30
2017-08-29T12:18:01.093Z,27.40
2017-08-29T12:20:27.589Z,27.30
2017-08-29T12:22:54.052Z,27.40
2017-08-29T12:25:20.495Z,27.30
2017-08-29T12:27:46.932Z,27.20
2017-08-29T12:30:13.403Z,27.10
2017-08-29T12:32:39.839Z,27.30
2017-08-29T12:35:06.296Z,27.30
2017-08-29T12:37:32.750Z,27.40
2017-08-29T12:39:59.192Z,27.60
2017-08-29T12:42:44.210Z,27.70
2017-08-29T12:45:53.452Z,27.80
2017-08-29T12:48:28.582Z,27.90
2017-08-29T12:50:58.184Z,28.10
2017-08-29T12:53:39.444Z,28.00
2017-08-29T12:56:10.865Z,27.90
2017-08-29T12:58:42.443Z,27.80
2017-08-29T13:03:47.483Z,27.70
2017-08-29T13:06:14.058Z,27.80
2017-08-29T13:08:40.522Z,27.90
2017-08-29T13:11:06.963Z,28.00
2017-08-29T13:13:33.673Z,27.90
2017-08-29T13:16:04.383Z,27.90
2017-08-29T13:18:35.475Z,27.90
2017-08-29T13:21:03.603Z,27.80
2017-08-29T13:23:31.126Z,27.80
2017-08-29T13:26:04.067Z,27.90
2017-08-29T13:28:40.339Z,27.80
2017-08-29T13:31:25.076Z,28.00
2017-08-29T13:33:51.526Z,28.20
2017-08-29T13:39:11.438Z,28.20
2017-08-29T13:41:37.891Z,28.10
2017-08-29T13:44:04.335Z,28.00
2017-08-29T13:46:33.809Z,27.90
2017-08-29T13:49:00.265Z,28.10
2017-08-29T13:51:26.710Z,28.10
2017-08-29T13:53:53.192Z,28.30
2017-08-29T13:56:19.640Z,28.10
2017-08-29T13:58:46.082Z,28.10
2017-08-29T14:01:18.655Z,28.10
2017-08-29T14:03:45.122Z,28.00
2017-08-29T14:06:11.759Z,28.00
2017-08-29T14:08:38.226Z,28.00
2017-08-29T14:11:04.693Z,28.10
2017-08-29T14:13:31.121Z,28.00
2017-08-29T14:15:57.557Z,28.00
2017-08-29T14:18:24.012Z,27.90
2017-08-29T14:20:50.455Z,27.90
2017-08-29T14:23:16.929Z,28.00
2017-08-29T14:25:43.379Z,27.90
2017-08-29T14:28:09.812Z,28.00
2017-08-29T14:30:36.300Z,27.90
2017-08-29T14:33:02.763Z,27.60
2017-08-29T14:35:29.213Z,27.70
2017-08-29T14:37:55.671Z,27.60
2017-08-29T14:40:22.131Z,27.60
2017-08-29T14:42:48.597Z,27.70
2017-08-29T14:45:15.048Z,27.70
2017-08-29T14:47:53.832Z,27.70
2017-08-29T14:50:20.282Z,27.80
2017-08-29T14:52:46.722Z,27.80
2017-08-29T14:55:13.171Z,27.80
2017-08-29T14:57:39.671Z,27.70
2017-08-29T15:00:06.105Z,27.80
2017-08-29T15:02:32.521Z,27.90
2017-08-29T15:04:58.954Z,28.00
2017-08-29T15:07:25.396Z,28.00
2017-08-29T15:09:51.811Z,28.20
2017-08-29T15:12:18.300Z,28.00
2017-08-29T15:14:44.740Z,28.00
2017-08-29T15:17:11.276Z,27.90
2017-08-29T15:19:37.742Z,27.80
2017-08-29T15:22:04.937Z,27.80
2017-08-29T15:24:31.386Z,27.80
2017-08-29T15:26:57.836Z,27.90
2017-08-29T15:29:24.261Z,28.00
2017-08-29T15:31:50.728Z,27.90
2017-08-29T15:34:17.188Z,27.70
2017-08-29T15:36:43.626Z,27.60
2017-08-29T15:39:10.080Z,27.50
2017-08-29T15:41:36.536Z,27.40
2017-08-29T15:44:02.993Z,27.30
2017-08-29T15:46:29.444Z,27.20
2017-08-29T15:48:55.868Z,27.30
2017-08-29T15:51:22.331Z,27.40
2017-08-29T15:53:48.781Z,27.10
2017-08-29T15:56:15.221Z,27.10
2017-08-29T15:58:41.675Z,27.10
2017-08-29T16:01:08.127Z,26.80
2017-08-29T16:03:34.563Z,26.60
2017-08-29T16:06:01.046Z,26.50
2017-08-29T16:08:27.501Z,26.60
2017-08-29T16:10:53.950Z,26.70
2017-08-29T16:13:20.407Z,26.80
2017-08-29T16:15:46.882Z,26.60
2017-08-29T16:18:13.362Z,26.50
2017-08-29T16:20:39.820Z,26.60
2017-08-29T16:23:06.267Z,26.80
2017-08-29T16:25:32.727Z,26.90
2017-08-29T16:27:59.209Z,26.70
2017-08-29T16:30:25.688Z,26.70
2017-08-29T16:32:52.222Z,26.60
2017-08-29T16:35:18.693Z,26.40
2017-08-29T16:37:45.154Z,26.30
2017-08-29T16:40:11.638Z,26.10
2017-08-29T16:42:38.071Z,26.10
2017-08-29T16:45:04.522Z,26.30
2017-08-29T16:47:30.990Z,26.30
2017-08-29T16:49:57.437Z,26.30
2017-08-29T16:52:23.876Z,26.10
2017-08-29T16:54:50.327Z,26.00
2017-08-29T16:57:16.767Z,25.90
2017-08-29T16:59:43.228Z,25.80
2017-08-29T17:02:09.682Z,25.70
2017-08-29T17:04:36.119Z,25.70
2017-08-29T17:07:03.302Z,25.60
2017-08-29T17:09:29.777Z,25.60
2017-08-29T17:12:03.255Z,25.60
2017-08-29T17:14:29.719Z,25.40
2017-08-29T17:16:56.149Z,25.30
2017-08-29T17:19:22.614Z,25.30
2017-08-29T17:21:49.052Z,25.10
2017-08-29T17:24:15.563Z,25.00
2017-08-29T17:26:42.004Z,24.90
2017-08-29T17:29:08.502Z,24.70
2017-08-29T17:31:34.922Z,24.80
2017-08-29T17:34:01.372Z,24.70
2017-08-29T17:36:27.821Z,24.60
2017-08-29T17:38:54.280Z,24.50
2017-08-29T17:41:20.730Z,24.50
2017-08-29T17:43:47.452Z,24.30
2017-08-29T17:46:13.934Z,24.20
2017-08-29T17:48:40.467Z,24.20
2017-08-29T17:51:06.948Z,24.00
2017-08-29T17:53:34.155Z,23.70
2017-08-29T17:56:00.571Z,23.70
2017-08-29T17:58:27.022Z,23.60
2017-08-29T18:00:53.457Z,23.60
2017-08-29T18:03:19.897Z,23.30
2017-08-29T18:05:46.372Z,23.30
2017-08-29T18:08:12.821Z,23.20
2017-08-29T18:10:39.308Z,23.20
2017-08-29T18:13:05.755Z,23.00
2017-08-29T18:15:32.211Z,22.90
2017-08-29T18:17:58.850Z,22.80
2017-08-29T18:20:25.379Z,22.70
2017-08-29T18:22:51.923Z,22.60
2017-08-29T18:25:18.405Z,22.50
2017-08-29T18:27:44.938Z,22.40
2017-08-29T18:30:11.434Z,22.30
2017-08-29T18:32:37.927Z,22.40
2017-08-29T18:35:04.491Z,22.40
2017-08-29T18:37:31.001Z,22.50
2017-08-29T18:39:57.558Z,22.50
2017-08-29T18:42:24.028Z,22.50
2017-08-29T18:44:50.508Z,22.50
2017-08-29T18:47:16.959Z,22.40
2017-08-29T18:49:43.440Z,22.40
2017-08-29T18:52:09.969Z,22.30
2017-08-29T18:54:36.428Z,22.30
2017-08-29T18:57:02.937Z,22.20
2017-08-29T18:59:29.455Z,22.30
2017-08-29T19:01:55.883Z,22.30
2017-08-29T19:04:22.389Z,22.20
2017-08-29T19:06:48.862Z,22.10
2017-08-29T19:09:15.338Z,21.90
2017-08-29T19:11:41.831Z,21.70
2017-08-29T19:14:08.406Z,21.70
2017-08-29T19:16:34.927Z,21.60
2017-08-29T19:19:01.493Z,21.40
2017-08-29T19:21:27.964Z,21.30
2017-08-29T19:23:54.408Z,21.10
2017-08-29T19:26:20.852Z,21.00
2017-08-29T19:28:47.318Z,20.80
2017-08-29T19:31:13.843Z,20.80
2017-08-29T19:33:40.295Z,20.80
2017-08-29T19:36:06.888Z,20.70
2017-08-29T19:38:33.385Z,20.40
2017-08-29T19:41:00.610Z,20.50
2017-08-29T19:43:27.182Z,20.40
2017-08-29T19:45:54.367Z,20.30
2017-08-29T19:48:20.834Z,20.30
2017-08-29T19:50:47.261Z,20.30
2017-08-29T19:53:13.714Z,20.30
2017-08-29T19:55:40.179Z,20.10
2017-08-29T19:58:06.657Z,20.20
2017-08-29T20:00:33.267Z,20.10
2017-08-29T20:02:59.731Z,19.90
2017-08-29T20:05:26.196Z,19.90
2017-08-29T20:07:53.086Z,19.80
2017-08-29T20:10:19.527Z,19.50
2017-08-29T20:12:46.025Z,19.40
2017-08-29T20:15:12.558Z,19.20
2017-08-29T20:17:38.996Z,19.10
2017-08-29T20:20:05.498Z,19.10
2017-08-29T20:22:31.975Z,18.90
2017-08-29T20:24:58.432Z,18.80
2017-08-29T20:27:24.949Z,18.60
2017-08-29T20:29:51.396Z,18.50
2017-08-29T20:32:17.844Z,18.50
2017-08-29T20:34:44.279Z,18.30
2017-08-29T20:37:10.720Z,18.20
2017-08-29T20:39:37.189Z,18.10
2017-08-29T20:42:03.826Z,18.10
2017-08-29T20:44:30.390Z,17.90
2017-08-29T20:46:56.871Z,17.90
2017-08-29T20:49:23.333Z,17.80
2017-08-29T20:51:49.755Z,17.80
2017-08-29T20:54:16.205Z,17.60
2017-08-29T20:56:42.767Z,17.50
2017-08-29T20:59:09.222Z,17.50
2017-08-29T21:01:35.656Z,17.50
2017-08-29T21:04:02.179Z,17.30
2017-08-29T21:06:28.623Z,17.20
2017-08-29T21:08:55.093Z,17.10
2017-08-29T21:11:21.776Z,17.10
2017-08-29T21:13:49.966Z,17.10
2017-08-29T21:16:16.465Z,16.90
2017-08-29T21:18:42.995Z,16.90
2017-08-29T21:21:09.467Z,16.80
2017-08-29T21:23:35.921Z,16.80
2017-08-29T21:26:03.448Z,16.80
2017-08-29T21:28:30.289Z,16.70
2017-08-29T21:30:58.534Z,16.60
2017-08-29T21:33:24.973Z,16.50
2017-08-29T21:35:51.432Z,16.40
2017-08-29T21:38:17.887Z,16.30
2017-08-29T21:40:44.348Z,16.30
2017-08-29T21:43:10.839Z,16.20
2017-08-29T21:45:37.296Z,16.10
2017-08-29T21:48:03.739Z,16.10
2017-08-29T21:50:30.184Z,16.10
2017-08-29T21:52:56.632Z,16.00
2017-08-29T21:55:23.072Z,16.00
2017-08-29T21:57:49.540Z,16.00
2017-08-29T22:00:16.047Z,15.90
2017-08-29T22:02:42.536Z,15.90
2017-08-29T22:05:08.988Z,15.90
2017-08-29T22:07:35.482Z,15.70
2017-08-29T22:10:01.949Z,15.60
2017-08-29T22:12:28.411Z,15.60
2017-08-29T22:14:55.014Z,15.50
2017-08-29T22:17:21.458Z,15.50
2017-08-29T22:19:47.902Z,15.40
2017-08-29T22:22:14.545Z,15.30
2017-08-29T22:24:40.981Z,15.20
2017-08-29T22:27:07.481Z,15.20
2017-08-29T22:29:33.957Z,15.20
2017-08-29T22:32:00.402Z,15.20
2017-08-29T22:34:26.849Z,15.20
2017-08-29T22:36:53.298Z,15.10
2017-08-29T22:39:19.748Z,15.10
2017-08-29T22:41:46.196Z,15.10
2017-08-29T22:44:12.662Z,15.10
2017-08-29T22:46:39.163Z,15.10
2017-08-29T22:49:05.654Z,15.00
2017-08-29T22:51:32.134Z,14.90
2017-08-29T22:53:58.600Z,15.00
2017-08-29T22:56:25.041Z,14.90
2017-08-29T22:58:51.492Z,14.90
2017-08-29T23:01:17.972Z,14.80
2017-08-29T23:03:44.445Z,14.70
2017-08-29T23:06:10.925Z,14.60
2017-08-29T23:08:37.373Z,14.60
2017-08-29T23:11:03.865Z,14.60
2017-08-29T23:13:30.344Z,14.60
2017-08-29T23:15:56.800Z,14.60
2017-08-29T23:18:23.257Z,14.50
2017-08-29T23:20:49.697Z,14.40
2017-08-29T23:23:16.157Z,14.40
2017-08-29T23:25:42.708Z,14.40
2017-08-29T23:28:09.175Z,14.40
2017-08-29T23:30:36.409Z,14.50
2017-08-29T23:33:02.864Z,14.40
2017-08-29T23:35:30.063Z,14.60
2017-08-29T23:37:56.738Z,14.60
2017-08-29T23:40:23.208Z,14.60
2017-08-29T23:42:49.677Z,14.60
2017-08-29T23:45:16.116Z,14.60
2017-08-29T23:47:42.613Z,14.60
2017-08-29T23:50:09.056Z,14.60
2017-08-29T23:52:35.524Z,14.50
2017-08-29T23:55:01.972Z,14.40
2017-08-29T23:57:28.434Z,14.30
2017-08-29T23:59:55.646Z,14.20
